Time;durP1;ratioP1;P1;durP2;ratioP2;P2;SDS_P1;SDS_P2;PMS_P1;PMS_P2;Temp;Humidity;BMP_temperature;BMP_pressure;BME280_temperature;BME280_humidity;BME280_pressure;Samples;Min_cycle;Max_cycle;Signal;HPM_P1;HPM_P2
2022/09/26 00:01:37;;;;;;;8.43;5.38;;;;;;;9.28;73.23;98894.56;4896879;29;20043;-83
2022/09/26 00:04:14;;;;;;;10.20;5.88;;;;;;;9.58;72.41;98944.22;4893953;29;20063;-80
2022/09/26 00:06:42;;;;;;;9.63;7.00;;;;;;;9.33;73.08;98903.13;4894552;29;20061;-81
2022/09/26 00:09:08;;;;;;;18.95;12.80;;;;;;;9.46;72.95;98923.66;4891179;29;20080;-83
2022/09/26 00:11:34;;;;;;;19.75;13.93;;;;;;;9.54;72.89;98924.41;4893935;29;20128;-81
2022/09/26 00:14:04;;;;;;;10.43;7.03;;;;;;;9.61;72.54;98933.75;4906089;29;20051;-82
2022/09/26 00:16:30;;;;;;;13.93;10.23;;;;;;;9.77;72.80;98964.66;4894422;29;20037;-80
2022/09/26 00:19:00;;;;;;;15.50;10.38;;;;;;;9.59;72.92;98932.97;4896253;29;20088;-79
2022/09/26 00:21:29;;;;;;;11.15;7.82;;;;;;;9.72;72.36;98954.34;4891086;29;20102;-82
2022/09/26 00:23:55;;;;;;;8.18;5.65;;;;;;;9.51;72.73;98916.66;4893482;29;20076;-81
2022/09/26 00:26:23;;;;;;;9.30;5.80;;;;;;;9.66;72.70;98933.69;4875997;29;21403;-81
2022/09/26 00:28:50;;;;;;;9.73;6.00;;;;;;;9.83;72.83;98972.31;4892599;29;20059;-80
2022/09/26 00:31:28;;;;;;;9.80;5.93;;;;;;;9.84;72.66;98968.84;4893644;29;20055;-81
2022/09/26 00:33:55;;;;;;;10.43;5.35;;;;;;;9.61;72.51;98944.16;4894172;29;20051;-80
2022/09/26 00:36:29;;;;;;;8.40;5.90;;;;;;;9.63;72.49;98941.53;4895894;29;20040;-80
2022/09/26 00:38:57;;;;;;;8.85;5.35;;;;;;;9.60;72.40;98946.78;4876508;29;20068;-82
2022/09/26 00:41:23;;;;;;;9.50;5.68;;;;;;;9.65;72.44;98965.75;4895889;29;20076;-80
2022/09/26 00:43:53;;;;;;;9.10;5.65;;;;;;;9.71;71.84;98975.16;4893096;29;20127;-81
2022/09/26 00:46:34;;;;;;;8.60;5.25;;;;;;;9.70;72.46;98979.53;4898356;29;20432;-81
2022/09/26 00:49:30;;;;;;;7.90;5.63;;;;;;;9.70;72.06;98979.53;4897991;29;20056;-80
2022/09/26 00:52:11;;;;;;;9.57;5.63;;;;;;;9.33;71.90;98931.69;4891317;29;20157;-80
2022/09/26 00:54:43;;;;;;;8.80;4.88;;;;;;;9.53;71.99;98959.03;4889534;29;20408;-81
2022/09/26 00:57:18;;;;;;;10.55;5.03;;;;;;;9.63;71.97;98968.34;4892709;29;20078;-79
2022/09/26 00:59:53;;;;;;;7.35;5.10;;;;;;;9.59;71.99;98968.44;4897655;29;20048;-79
2022/09/26 01:02:28;;;;;;;8.73;5.70;;;;;;;9.45;72.16;98937.53;4883563;29;20044;-80
2022/09/26 01:04:57;;;;;;;9.50;5.93;;;;;;;9.69;72.07;98976.94;4900399;29;20593;-82
2022/09/26 01:07:27;;;;;;;10.57;5.80;;;;;;;9.74;72.12;98988.94;4894283;29;20060;-81
2022/09/26 01:09:54;;;;;;;8.25;5.50;;;;;;;9.72;72.05;98982.06;4894073;29;20044;-81
2022/09/26 01:12:21;;;;;;;9.77;6.25;;;;;;;9.79;72.07;98988.88;4895153;29;20040;-79
2022/09/26 01:14:51;;;;;;;10.20;5.35;;;;;;;9.57;71.84;98945.13;4892887;29;20055;-80
2022/09/26 01:17:22;;;;;;;12.00;5.95;;;;;;;9.65;72.05;98961.41;4896141;29;20059;-80
2022/09/26 01:20:19;;;;;;;9.00;5.80;;;;;;;9.76;71.76;98971.59;4895386;29;20139;-80
2022/09/26 01:23:10;;;;;;;10.27;6.22;;;;;;;9.76;71.93;98981.97;4895753;29;20116;-80
2022/09/26 01:26:07;;;;;;;11.32;6.60;;;;;;;9.73;71.52;98978.59;4894055;29;20090;-79
2022/09/26 01:28:59;;;;;;;12.23;6.38;;;;;;;9.53;72.30;98945.19;4906998;29;20048;-81
2022/09/26 01:31:35;;;;;;;8.57;6.17;;;;;;;9.71;71.73;98981.19;4892081;29;20040;-80
2022/09/26 01:34:13;;;;;;;10.48;6.22;;;;;;;9.68;71.52;98977.81;4892239;29;20465;-80
2022/09/26 01:37:18;;;;;;;8.82;6.10;;;;;;;9.66;71.89;98977.84;4892052;29;20055;-79
2022/09/26 01:39:56;;;;;;;9.82;6.32;;;;;;;9.62;71.80;98987.44;4889660;29;20460;-82
2022/09/26 01:42:50;;;;;;;13.18;6.45;;;;;;;9.36;71.79;98953.28;4902997;29;20418;-78
2022/09/26 01:45:26;;;;;;;9.60;6.13;;;;;;;9.31;71.84;98953.34;4878490;29;20523;-80
2022/09/26 01:48:17;;;;;;;8.85;6.10;;;;;;;9.42;71.72;98980.00;4892574;29;20085;-81
2022/09/26 01:51:02;;;;;;;11.18;6.35;;;;;;;9.11;72.32;98943.31;4907579;29;20036;-81
2022/09/26 01:53:41;;;;;;;11.82;7.05;;;;;;;9.48;72.27;99010.19;4893923;29;20409;-80
2022/09/26 01:56:19;;;;;;;10.02;6.60;;;;;;;9.38;71.64;98980.09;4891082;29;20099;-81
2022/09/26 01:58:50;;;;;;;11.55;6.28;;;;;;;9.50;72.08;99003.25;4890647;29;20758;-83
2022/09/26 02:01:21;;;;;;;9.40;6.20;;;;;;;9.52;71.64;99009.25;4887633;29;20512;-82
2022/09/26 02:03:51;;;;;;;;;;;;;;;9.52;72.10;99003.19;4901356;29;20049;-82
2022/09/26 02:06:23;;;;;;;12.32;6.43;;;;;;;9.47;72.15;98998.09;4886554;29;19979;-79
2022/09/26 02:09:05;;;;;;;8.73;6.40;;;;;;;9.41;71.94;98985.22;4874249;29;20115;-80
2022/09/26 02:11:31;;;;;;;10.57;6.47;;;;;;;9.52;71.96;99011.88;4901192;29;20067;-80
2022/09/26 02:14:05;;;;;;;14.55;6.90;;;;;;;9.44;71.45;99008.53;4883641;29;20080;-82
2022/09/26 02:16:38;;;;;;;12.00;7.13;;;;;;;9.44;71.62;99014.59;4898697;29;20075;-80
2022/09/26 02:19:26;;;;;;;11.10;6.82;;;;;;;9.41;71.90;99013.78;4906938;29;20116;-81
2022/09/26 02:21:53;;;;;;;13.35;7.10;;;;;;;9.30;71.96;99001.84;4891303;29;20040;-78
2022/09/26 02:24:21;;;;;;;12.18;6.97;;;;;;;9.31;71.39;99006.16;4874798;29;20052;-81
2022/09/26 02:26:49;;;;;;;10.30;6.97;;;;;;;9.21;71.93;98996.78;4876828;29;20048;-81
2022/09/26 02:29:19;;;;;;;10.38;6.93;;;;;;;9.16;71.59;98996.88;4874120;29;20123;-81
2022/09/26 02:31:54;;;;;;;13.27;7.65;;;;;;;9.11;71.85;98996.06;4909791;29;20045;-83
2022/09/26 02:34:21;;;;;;;12.32;7.57;;;;;;;9.34;71.56;99028.59;4890531;29;20433;-81
2022/09/26 02:36:50;;;;;;;10.45;7.05;;;;;;;9.33;72.12;99029.47;4888307;29;20509;-81
2022/09/26 02:39:16;;;;;;;11.30;7.68;;;;;;;9.21;71.72;99014.13;4890031;29;20523;-80
2022/09/26 02:42:24;;;;;;;11.60;6.70;;;;;;;9.16;71.88;99019.34;4876808;29;20171;-79
2022/09/26 02:45:12;;;;;;;11.65;6.97;;;;;;;9.23;71.80;99018.38;4889100;29;20296;-80
2022/09/26 02:48:01;;;;;;;13.13;7.15;;;;;;;9.30;72.30;99043.38;4876130;29;20504;-82
2022/09/26 02:50:59;;;;;;;11.50;6.80;;;;;;;9.28;71.96;99047.72;4908744;29;20043;-80
2022/09/26 02:53:46;;;;;;;10.63;7.13;;;;;;;9.30;72.00;99043.38;4904908;29;20053;-82
2022/09/26 02:56:34;;;;;;;10.75;7.35;;;;;;;9.01;72.05;98997.97;4891620;29;20081;-82
2022/09/26 02:59:00;;;;;;;12.02;7.15;;;;;;;9.32;72.37;99033.81;4890502;29;20131;-81
2022/09/26 03:01:42;;;;;;;18.02;7.05;;;;;;;9.07;71.94;98996.16;4877139;29;20728;-78
2022/09/26 03:04:37;;;;;;;11.55;6.85;;;;;;;9.30;71.88;99033.00;4874698;29;20365;-80
2022/09/26 03:07:10;;;;;;;10.88;6.63;;;;;;;9.30;72.10;99029.53;4893606;29;20577;-79
2022/09/26 03:09:38;;;;;;;10.77;7.00;;;;;;;9.29;71.98;99027.81;4895269;29;20059;-82
2022/09/26 03:12:08;;;;;;;11.00;6.93;;;;;;;8.93;72.12;98980.78;4895681;29;20040;-82
2022/09/26 03:14:38;;;;;;;9.55;6.28;;;;;;;9.03;71.98;98985.81;4894144;29;21252;-81
2022/09/26 03:17:05;;;;;;;11.27;7.00;;;;;;;8.98;71.80;98977.25;4890717;29;20504;-81
2022/09/26 03:19:40;;;;;;;10.38;6.78;;;;;;;9.27;72.18;99024.41;4893178;29;20103;-80
2022/09/26 03:22:08;;;;;;;12.75;6.82;;;;;;;9.39;71.82;99042.38;4892625;29;20583;-79
2022/09/26 03:24:36;;;;;;;12.05;7.13;;;;;;;9.39;71.98;99034.56;4893831;29;20406;-80
2022/09/26 03:27:04;;;;;;;9.70;6.65;;;;;;;9.34;71.91;99032.06;4889783;29;20043;-81
2022/09/26 03:29:31;;;;;;;11.05;7.07;;;;;;;9.16;71.97;99007.25;4893805;29;20432;-81
2022/09/26 03:31:59;;;;;;;11.60;6.75;;;;;;;9.11;71.75;98998.66;4894442;29;20071;-80
2022/09/26 03:34:26;;;;;;;11.07;7.28;;;;;;;9.05;71.61;98996.16;4894199;29;20099;-81
2022/09/26 03:36:53;;;;;;;11.85;6.68;;;;;;;9.21;71.47;99035.72;4905003;29;20036;-80
2022/09/26 03:39:19;;;;;;;9.38;6.90;;;;;;;9.27;71.80;99047.78;4876691;29;20040;-80
2022/09/26 03:41:49;;;;;;;9.25;6.50;;;;;;;9.25;72.06;99054.72;4878394;29;20500;-80
2022/09/26 03:44:20;;;;;;;13.55;7.65;;;;;;;9.20;71.30;99044.38;4871028;29;20083;-80
2022/09/26 03:47:04;;;;;;;13.07;6.97;;;;;;;9.22;71.77;99055.59;4893535;29;20072;-82
2022/09/26 03:49:35;;;;;;;10.70;6.78;;;;;;;9.14;71.76;99041.91;4874934;29;20095;-80
2022/09/26 03:52:02;;;;;;;10.07;6.68;;;;;;;9.21;71.74;99060.84;4893472;29;20127;-79
2022/09/26 03:54:29;;;;;;;10.57;6.88;;;;;;;9.03;71.76;99037.72;4886624;29;20165;-79
2022/09/26 03:56:55;;;;;;;9.57;6.90;;;;;;;9.21;71.44;99064.28;4878298;29;20140;-80
2022/09/26 03:59:21;;;;;;;12.27;6.70;;;;;;;8.94;71.36;99024.88;4894832;29;20048;-80
2022/09/26 04:01:49;;;;;;;11.50;7.20;;;;;;;8.97;71.59;99011.00;4890013;29;20071;-83
2022/09/26 04:04:15;;;;;;;10.38;6.80;;;;;;;9.06;71.65;99007.41;4890808;29;20052;-81
2022/09/26 04:06:43;;;;;;;9.90;7.15;;;;;;;9.24;71.61;99035.69;4892638;29;20552;-81
2022/09/26 04:09:10;;;;;;;9.93;6.13;;;;;;;9.46;71.06;99069.09;4880240;29;20048;-82
2022/09/26 04:11:37;;;;;;;11.10;6.97;;;;;;;9.07;71.43;99003.94;4892271;29;20400;-81
2022/09/26 04:14:04;;;;;;;9.73;6.63;;;;;;;9.24;71.39;99014.91;4874894;29;20067;-82
2022/09/26 04:16:34;;;;;;;12.05;7.40;;;;;;;9.32;70.90;99023.44;4877365;29;20102;-81
2022/09/26 04:19:19;;;;;;;11.18;7.03;;;;;;;9.36;70.84;99032.03;4894664;29;20070;-83
2022/09/26 04:21:45;;;;;;;10.77;7.90;;;;;;;9.55;71.10;99061.16;4895928;29;20048;-82
2022/09/26 04:24:15;;;;;;;12.32;7.00;;;;;;;9.25;70.80;99024.41;4907156;29;20385;-80
2022/09/26 04:26:43;;;;;;;11.35;7.15;;;;;;;9.41;71.10;99050.13;4890873;29;20405;-81
2022/09/26 04:29:10;;;;;;;12.13;7.40;;;;;;;9.52;70.75;99066.41;4888154;29;20118;-82
2022/09/26 04:32:05;;;;;;;10.50;7.38;;;;;;;9.38;70.65;99051.03;4892089;29;20092;-79
2022/09/26 04:34:54;;;;;;;11.40;8.00;;;;;;;9.53;71.01;99070.72;4890559;29;20508;-81
2022/09/26 04:37:21;;;;;;;11.40;7.03;;;;;;;9.46;70.82;99069.09;4892265;29;20041;-81
2022/09/26 04:39:47;;;;;;;9.68;6.95;;;;;;;9.57;70.56;99081.91;4889252;29;20118;-81
2022/09/26 04:42:13;;;;;;;11.80;7.60;;;;;;;9.42;70.64;99057.03;4892734;29;20079;-78
2022/09/26 04:44:40;;;;;;;12.40;7.65;;;;;;;9.30;70.32;99027.81;4885415;29;20051;-80
2022/09/26 04:47:06;;;;;;;10.52;6.93;;;;;;;9.36;70.64;99031.19;4894910;29;20048;-81
2022/09/26 04:49:51;;;;;;;12.15;7.57;;;;;;;9.65;70.86;99078.28;4896115;29;20400;-78
2022/09/26 04:52:19;;;;;;;14.10;7.55;;;;;;;9.77;70.81;99090.22;4892034;29;20469;-80
2022/09/26 04:54:46;;;;;;;11.45;6.75;;;;;;;9.84;70.66;99083.16;4888466;29;20045;-80
2022/09/26 04:57:13;;;;;;;11.50;7.93;;;;;;;9.79;70.02;99066.84;4889859;29;20516;-83
2022/09/26 04:59:39;;;;;;;11.45;7.25;;;;;;;9.68;69.99;99035.84;4891722;29;20048;-80
2022/09/26 05:02:06;;;;;;;14.68;7.03;;;;;;;9.95;70.14;99083.00;4863744;29;20436;-81
2022/09/26 05:04:40;;;;;;;10.30;6.45;;;;;;;9.72;70.21;99054.81;4888585;29;20370;-80
2022/09/26 05:07:06;;;;;;;12.15;6.38;;;;;;;9.65;69.65;99054.91;4892072;29;20081;-80
2022/09/26 05:09:32;;;;;;;12.52;6.68;;;;;;;9.60;69.71;99058.47;4872595;29;20469;-81
2022/09/26 05:12:05;;;;;;;10.48;7.07;;;;;;;9.58;69.44;99061.13;4898093;29;20069;-84
2022/09/26 05:14:34;;;;;;;8.32;5.80;;;;;;;9.80;69.83;99089.34;4884545;29;20076;-77
2022/09/26 05:17:01;;;;;;;8.65;5.72;;;;;;;9.76;69.74;99092.84;4872398;29;20137;-75
2022/09/26 05:19:27;;;;;;;9.02;5.55;;;;;;;9.82;69.69;99089.28;4889559;29;20056;-79
2022/09/26 05:22:30;;;;;;;9.43;5.05;;;;;;;9.86;70.10;99093.56;4874886;29;20047;-78
2022/09/26 05:27:41;;;;;;;8.23;5.05;;;;;;;9.97;69.25;99082.97;4893344;29;20095;-79
2022/09/26 05:30:08;;;;;;;7.50;5.07;;;;;;;9.95;68.99;99088.19;4876748;29;20052;-78
2022/09/26 05:32:34;;;;;;;6.30;4.20;;;;;;;10.07;69.11;99102.72;4894264;29;20070;-83
2022/09/26 05:35:04;;;;;;;7.57;4.72;;;;;;;10.12;69.04;99108.69;4899579;29;20052;-81
2022/09/26 05:37:32;;;;;;;6.32;4.47;;;;;;;10.08;68.78;99104.41;4881486;29;20089;-78
2022/09/26 05:42:48;;;;;;;10.90;5.00;;;;;;;10.13;68.94;99104.34;4895795;29;20053;-81
2022/09/26 05:45:15;;;;;;;11.10;4.85;;;;;;;10.14;68.75;99104.31;4896073;29;20040;-79
2022/09/26 05:47:42;;;;;;;8.75;4.78;;;;;;;10.24;68.81;99108.47;4898629;29;20481;-80
2022/09/26 05:50:09;;;;;;;7.60;4.63;;;;;;;10.14;68.49;99085.28;4894693;29;20047;-79
2022/09/26 05:52:37;;;;;;;8.63;5.43;;;;;;;10.28;68.62;99100.59;4905291;29;20091;-81
2022/09/26 05:55:04;;;;;;;9.48;5.18;;;;;;;10.40;68.39;99111.66;4908481;29;20449;-81
2022/09/26 05:57:52;;;;;;;8.30;4.80;;;;;;;10.54;68.73;99113.16;4898243;29;20052;-80
2022/09/26 06:00:20;;;;;;;7.97;4.53;;;;;;;10.61;68.42;99106.91;4913046;29;20039;-79
2022/09/26 06:02:55;;;;;;;8.15;4.38;;;;;;;10.68;68.16;99099.88;4918311;29;20068;-79
2022/09/26 06:05:27;;;;;;;5.57;3.63;;;;;;;10.60;67.95;99088.75;4892269;29;20048;-79
2022/09/26 06:08:12;;;;;;;6.93;3.42;;;;;;;10.75;68.00;99118.81;4897239;29;20051;-82
2022/09/26 06:10:50;;;;;;;5.45;2.90;;;;;;;10.72;68.23;99109.31;4874206;29;20049;-79
2022/09/26 06:13:20;;;;;;;4.32;2.88;;;;;;;10.70;68.25;99104.13;4905414;29;20049;-79
2022/09/26 06:15:48;;;;;;;4.78;2.88;;;;;;;10.77;68.11;99104.88;4893346;29;20068;-79
2022/09/26 06:18:15;;;;;;;8.50;3.17;;;;;;;10.83;68.11;99114.28;4909901;29;20112;-77
2022/09/26 06:20:40;;;;;;;5.75;2.90;;;;;;;10.85;67.99;99105.56;4910639;29;20051;-77
2022/09/26 06:23:30;;;;;;;6.88;2.95;;;;;;;10.89;67.58;99102.91;4879066;29;20044;-79
2022/09/26 06:25:59;;;;;;;8.43;2.88;;;;;;;10.85;67.73;99118.59;4888146;29;20096;-88
2022/09/26 06:28:27;;;;;;;7.25;3.10;;;;;;;11.07;67.57;99141.56;4887229;29;20056;-79
2022/09/26 06:30:54;;;;;;;3.45;2.58;;;;;;;11.11;67.71;99127.59;4904289;29;20125;-80
2022/09/26 06:33:40;;;;;;;9.55;3.00;;;;;;;11.22;67.12;99121.28;4901666;29;20051;-77
2022/09/26 06:36:23;;;;;;;3.70;2.10;;;;;;;11.24;67.15;99127.31;4897121;29;20044;-79
2022/09/26 06:38:52;;;;;;;3.53;2.13;;;;;;;11.18;67.16;99143.94;4899246;29;20139;-76
2022/09/26 06:41:18;;;;;;;9.07;3.10;;;;;;;11.21;66.98;99136.06;4876832;29;20048;-80
2022/09/26 06:43:45;;;;;;;4.88;2.47;;;;;;;11.12;66.69;99131.03;4888827;29;20412;-79
2022/09/26 06:46:30;;;;;;;6.38;2.92;;;;;;;11.02;66.41;99126.94;4907174;29;20076;-77
2022/09/26 06:49:21;;;;;;;3.80;2.20;;;;;;;10.91;66.65;99142.78;4895510;29;20044;-78
2022/09/26 06:52:03;;;;;;;4.53;2.42;;;;;;;10.64;66.78;99121.63;4879259;29;20096;-77
2022/09/26 06:54:29;;;;;;;5.03;2.63;;;;;;;10.65;67.07;99141.56;4894068;29;20044;-78
2022/09/26 06:56:55;;;;;;;6.68;2.72;;;;;;;10.62;67.26;99141.63;4873378;29;20056;-78
2022/09/26 06:59:22;;;;;;;4.50;2.70;;;;;;;10.65;67.27;99138.97;4874062;29;20077;-78
2022/09/26 07:01:54;;;;;;;5.15;3.38;;;;;;;10.58;67.11;99122.63;4871860;29;20068;-78
2022/09/26 07:04:38;;;;;;;6.82;3.35;;;;;;;10.83;67.27;99146.38;4876278;29;20044;-83
2022/09/26 07:07:24;;;;;;;5.97;3.10;;;;;;;11.00;67.29;99151.25;4890039;29;20064;-81
2022/09/26 07:09:51;;;;;;;6.60;3.60;;;;;;;11.02;67.13;99129.53;4889270;29;20071;-82
2022/09/26 07:12:42;;;;;;;9.05;4.72;;;;;;;11.12;66.81;99131.91;4890939;29;20037;-81
2022/09/26 07:15:12;;;;;;;15.80;7.53;;;;;;;11.34;66.82;99149.66;4904587;29;20523;-78
2022/09/26 07:17:47;;;;;;;8.20;4.25;;;;;;;11.39;66.66;99146.94;4877401;29;20041;-80
2022/09/26 07:20:46;;;;;;;3.88;2.60;;;;;;;11.44;66.27;99140.72;4869966;29;20144;-79
2022/09/26 07:23:36;;;;;;;6.25;2.30;;;;;;;11.39;65.86;99157.38;4897600;29;20055;-79
2022/09/26 07:26:02;;;;;;;4.15;2.25;;;;;;;11.23;65.69;99143.81;4887677;29;20049;-78
2022/09/26 07:28:30;;;;;;;4.97;2.15;;;;;;;11.08;65.62;99164.09;4904979;29;20040;-81
2022/09/26 07:30:59;;;;;;;4.05;2.60;;;;;;;11.01;65.67;99167.72;4911411;29;20032;-81
2022/09/26 07:33:46;;;;;;;3.92;2.40;;;;;;;10.93;66.00;99157.47;4865948;29;20537;-80
2022/09/26 07:36:12;;;;;;;5.53;2.20;;;;;;;10.97;65.92;99159.13;4883491;29;20049;-80
2022/09/26 07:38:39;;;;;;;3.05;2.00;;;;;;;11.08;66.33;99176.25;4880952;29;20075;-79
2022/09/26 07:41:07;;;;;;;2.92;1.85;;;;;;;11.15;66.25;99177.84;4866926;29;20524;-78
2022/09/26 07:43:33;;;;;;;2.53;1.70;;;;;;;11.07;66.29;99157.19;4893403;29;20052;-80
2022/09/26 07:51:37;;;;;;;2.58;1.60;;;;;;;11.92;66.53;99179.63;4895398;29;20048;-81
2022/09/26 07:54:06;;;;;;;3.35;1.55;;;;;;;11.77;65.84;99181.69;4879147;29;20049;-78
2022/09/26 07:57:11;;;;;;;2.42;1.17;;;;;;;11.65;65.79;99193.25;4885636;29;20092;-80
2022/09/26 07:59:44;;;;;;;2.03;1.42;;;;;;;11.52;65.68;99174.41;4914157;29;20539;-78
2022/09/26 08:02:21;;;;;;;3.42;1.60;;;;;;;11.64;65.88;99194.13;4895170;29;20040;-77
2022/09/26 08:04:47;;;;;;;1.90;1.40;;;;;;;11.63;65.45;99195.03;4874702;29;20049;-79
2022/09/26 08:07:14;;;;;;;1.80;1.45;;;;;;;11.50;65.22;99191.00;4898574;29;20071;-77
2022/09/26 08:09:52;;;;;;;2.25;1.60;;;;;;;11.47;65.33;99178.03;4922249;29;20055;-79
2022/09/26 08:12:38;;;;;;;2.88;1.90;;;;;;;11.43;65.30;99183.31;4918074;29;20040;-81
2022/09/26 08:15:33;;;;;;;6.68;1.90;;;;;;;11.52;65.41;99191.81;4886230;29;20055;-79
2022/09/26 08:18:08;;;;;;;4.28;1.90;;;;;;;11.58;65.42;99183.88;4884507;29;20515;-83
2022/09/26 08:20:36;;;;;;;2.53;1.70;;;;;;;11.78;64.87;99208.63;4909810;29;20053;-80
2022/09/26 08:23:02;;;;;;;3.80;1.50;;;;;;;11.97;65.31;99206.41;4902449;29;20508;-80
2022/09/26 08:25:30;;;;;;;5.20;2.00;;;;;;;12.19;64.82;99197.19;4906784;29;20047;-78
2022/09/26 08:28:27;;;;;;;2.53;1.80;;;;;;;12.36;64.21;99175.03;4915153;29;20071;-80
2022/09/26 08:30:53;;;;;;;3.75;1.60;;;;;;;12.71;64.26;99199.34;4887012;29;20067;-78
2022/09/26 08:33:20;;;;;;;2.13;1.50;;;;;;;12.93;63.91;99196.16;4899365;29;20037;-82
2022/09/26 08:35:47;;;;;;;2.05;1.38;;;;;;;13.04;63.21;99188.00;4870368;29;20048;-79
2022/09/26 08:38:33;;;;;;;1.55;1.42;;;;;;;13.27;62.70;99210.84;4902710;29;20051;-78
2022/09/26 08:41:59;;;;;;;5.85;1.58;;;;;;;13.34;62.63;99207.16;4900302;29;20143;-79
2022/09/26 08:44:52;;;;;;;4.03;1.50;;;;;;;13.51;61.81;99213.66;4864613;29;20477;-80
2022/09/26 08:47:52;;;;;;;3.20;1.42;;;;;;;13.50;61.37;99218.03;4889665;29;20040;-80
2022/09/26 08:50:40;;;;;;;1.30;1.10;;;;;;;13.49;61.03;99224.16;4865989;29;20052;-80
2022/09/26 08:53:15;;;;;;;1.83;1.30;;;;;;;13.48;61.32;99226.81;4893545;29;20040;-82
2022/09/26 08:55:48;;;;;;;2.08;1.02;;;;;;;13.38;61.25;99218.34;4878631;29;20596;-77
2022/09/26 08:58:21;;;;;;;3.50;1.30;;;;;;;13.23;60.48;99228.38;4852943;29;20428;-79
2022/09/26 09:00:54;;;;;;;1.55;1.30;;;;;;;13.15;61.02;99222.50;4888506;29;20079;-79
2022/09/26 09:03:29;;;;;;;2.58;1.20;;;;;;;13.08;60.44;99227.03;4872925;29;20048;-79
2022/09/26 09:06:10;;;;;;;2.60;1.70;;;;;;;12.99;61.05;99232.53;4891268;29;20064;-79
2022/09/26 09:08:56;;;;;;;2.30;1.40;;;;;;;13.02;60.64;99242.88;4888524;29;20049;-81
2022/09/26 09:11:52;;;;;;;2.55;1.40;;;;;;;13.00;60.85;99242.09;4874469;29;20163;-81
2022/09/26 09:14:59;;;;;;;5.50;2.90;;;;;;;13.05;60.96;99248.00;4890202;29;20041;-79
2022/09/26 09:18:07;;;;;;;1.85;1.55;;;;;;;13.08;60.85;99252.31;4835367;29;20123;-81
2022/09/26 09:21:22;;;;;;;2.53;1.73;;;;;;;12.87;60.81;99236.34;4879059;29;20044;-81
2022/09/26 09:24:02;;;;;;;5.53;2.20;;;;;;;12.89;61.11;99251.94;4883134;29;20044;-80
2022/09/26 09:26:35;;;;;;;6.50;2.15;;;;;;;12.83;61.19;99249.50;4878747;29;20045;-79
2022/09/26 09:29:29;;;;;;;4.85;2.38;;;;;;;12.78;61.09;99257.47;4872883;29;20056;-82
2022/09/26 09:32:19;;;;;;;7.28;3.13;;;;;;;12.66;60.99;99258.66;4880899;29;20725;-80
2022/09/26 09:35:22;;;;;;;;;;;;;;;12.54;61.16;99267.66;4870437;29;20056;-82
2022/09/26 09:38:27;;;;;;;9.30;2.85;;;;;;;12.49;61.76;99270.38;4898478;29;19923;-81
2022/09/26 09:41:27;;;;;;;4.30;2.10;;;;;;;12.59;61.76;99270.13;4870423;29;20084;-82
2022/09/26 09:43:56;;;;;;;4.43;1.95;;;;;;;12.43;61.66;99246.19;4891858;29;20535;-80
2022/09/26 09:46:31;;;;;;;3.25;1.88;;;;;;;12.62;61.80;99255.28;4896795;29;20045;-79
2022/09/26 09:49:09;;;;;;;8.85;2.20;;;;;;;12.79;61.70;99270.50;4896613;29;20534;-80
2022/09/26 09:52:02;;;;;;;6.00;1.95;;;;;;;13.01;61.54;99266.44;4868016;29;20454;-79
2022/09/26 09:55:00;;;;;;;7.95;2.05;;;;;;;13.20;61.02;99270.25;4899633;29;20060;-83
2022/09/26 09:57:29;;;;;;;4.35;2.10;;;;;;;13.37;60.74;99267.16;4887436;29;20138;-82
2022/09/26 10:00:15;;;;;;;6.88;3.08;;;;;;;13.46;60.30;99271.28;4860918;29;20049;-83
2022/09/26 10:03:03;;;;;;;5.20;2.08;;;;;;;13.67;60.25;99266.31;4889750;29;20048;-81
2022/09/26 10:05:38;;;;;;;7.43;1.55;;;;;;;13.99;59.90;99260.09;4898491;29;20052;-82
2022/09/26 10:08:23;;;;;;;5.38;1.40;;;;;;;14.14;59.10;99235.22;4889246;29;20048;-80
2022/09/26 10:11:38;;;;;;;4.75;1.58;;;;;;;14.39;58.40;99276.28;4890821;29;20047;-81
2022/09/26 10:14:38;;;;;;;5.38;1.58;;;;;;;14.07;57.79;99254.63;4889723;29;20033;-83
2022/09/26 10:17:10;;;;;;;1.92;1.52;;;;;;;13.99;57.39;99270.56;4895482;29;20143;-81
2022/09/26 10:19:46;;;;;;;2.67;1.75;;;;;;;14.05;57.52;99274.75;4888304;29;20048;-81
2022/09/26 10:22:29;;;;;;;3.20;1.30;;;;;;;14.22;57.08;99279.44;4901701;29;20055;-79
2022/09/26 10:24:59;;;;;;;;;;;;;;;14.20;56.36;99273.41;4873506;29;20052;-81
2022/09/26 10:27:36;;;;;;;3.13;1.80;;;;;;;14.11;56.26;99274.56;4885176;29;19969;-82
2022/09/26 10:30:18;;;;;;;3.00;1.60;;;;;;;14.13;56.30;99269.25;4881276;29;20461;-81
2022/09/26 10:32:50;;;;;;;6.15;1.90;;;;;;;14.24;56.10;99269.78;4876261;29;20051;-84
2022/09/26 10:35:45;;;;;;;4.80;1.92;;;;;;;14.40;56.04;99280.63;4879405;29;20072;-80
2022/09/26 10:38:22;;;;;;;2.60;1.52;;;;;;;14.53;55.10;99274.97;4874646;29;20481;-83
2022/09/26 10:41:22;;;;;;;7.97;2.72;;;;;;;14.60;55.03;99272.09;4883304;29;20064;-79
2022/09/26 10:43:56;;;;;;;5.75;1.63;;;;;;;14.43;54.95;99256.97;4858782;29;20108;-81
2022/09/26 10:46:46;;;;;;;6.40;1.88;;;;;;;14.10;54.68;99258.94;4878433;29;20100;-84
2022/09/26 10:49:57;;;;;;;5.50;1.38;;;;;;;13.82;54.52;99283.31;4882675;29;20053;-82
2022/09/26 10:52:53;;;;;;;1.30;1.00;;;;;;;13.45;54.95;99293.09;4894346;29;20142;-81
2022/09/26 10:55:28;;;;;;;2.55;0.90;;;;;;;12.73;55.23;99254.13;4905352;29;20099;-84
2022/09/26 10:58:01;;;;;;;1.58;0.90;;;;;;;12.53;56.13;99260.72;4895028;29;20309;-83
2022/09/26 11:00:36;;;;;;;2.35;0.80;;;;;;;12.54;56.81;99291.13;4881052;29;20041;-82
2022/09/26 11:03:10;;;;;;;3.80;1.00;;;;;;;12.10;56.97;99243.50;4879895;29;20401;-81
2022/09/26 11:05:59;;;;;;;4.53;1.10;;;;;;;12.25;57.38;99297.91;4901823;29;20045;-81
2022/09/26 11:08:36;;;;;;;2.30;0.90;;;;;;;11.86;58.02;99243.16;4910793;29;20044;-81
2022/09/26 11:11:32;;;;;;;6.50;1.05;;;;;;;12.22;58.47;99303.22;4899331;29;20049;-80
2022/09/26 11:14:08;;;;;;;3.35;1.10;;;;;;;11.93;58.72;99263.00;4889465;29;20040;-82
2022/09/26 11:16:55;;;;;;;3.65;0.98;;;;;;;12.16;59.35;99306.81;4869567;29;20072;-81
2022/09/26 11:19:47;;;;;;;3.65;0.93;;;;;;;12.30;59.45;99311.72;4870999;29;20063;-79
2022/09/26 11:22:40;;;;;;;2.42;0.90;;;;;;;12.08;59.30;99273.97;4902353;29;20076;-81
2022/09/26 11:25:34;;;;;;;;;;;;;;;;;;;;;
2022/09/26 11:28:14;;;;;;;4.18;1.60;;;;;;;11.80;60.13;99261.56;4867814;29;20036;-80
2022/09/26 11:31:14;;;;;;;1.08;0.85;;;;;;;11.95;59.73;99302.94;4894011;29;20048;-82
2022/09/26 11:33:45;;;;;;;3.67;1.25;;;;;;;11.64;60.25;99284.50;4881883;29;20063;-83
2022/09/26 11:36:48;;;;;;;2.78;0.80;;;;;;;11.77;60.58;99325.03;4883420;29;20044;-81
2022/09/26 11:39:42;;;;;;;3.63;0.80;;;;;;;11.66;60.74;99327.88;4883715;29;20045;-79
2022/09/26 11:42:20;;;;;;;3.00;0.90;;;;;;;11.57;61.13;99325.47;4883927;29;20096;-80
2022/09/26 11:44:55;;;;;;;4.32;1.00;;;;;;;11.42;61.36;99311.00;4886677;29;20083;-81
2022/09/26 11:47:40;;;;;;;3.13;1.00;;;;;;;11.53;61.42;99336.84;4899588;29;20112;-79
2022/09/26 11:50:48;;;;;;;3.33;0.80;;;;;;;11.55;61.88;99338.50;4881203;29;20053;-81
2022/09/26 11:53:39;;;;;;;2.50;0.95;;;;;;;11.47;61.93;99324.81;4913294;29;20044;-80
2022/09/26 11:56:14;;;;;;;2.38;1.20;;;;;;;11.54;62.38;99334.19;4882657;29;20051;-81
2022/09/26 11:59:20;;;;;;;2.95;1.02;;;;;;;11.52;62.36;99329.91;4869404;29;20048;-85
2022/09/26 12:02:23;;;;;;;10.13;1.90;;;;;;;11.68;62.52;99346.09;4896879;29;20036;-81
2022/09/26 12:05:04;;;;;;;8.55;1.42;;;;;;;11.65;62.24;99351.38;4883045;29;20072;-84
2022/09/26 12:07:59;;;;;;;5.47;1.48;;;;;;;11.53;62.94;99340.28;4912955;29;20488;-81
2022/09/26 12:11:04;;;;;;;7.85;1.40;;;;;;;11.35;62.71;99314.59;4881076;29;20052;-81
2022/09/26 12:13:46;;;;;;;7.07;1.52;;;;;;;11.59;62.45;99362.75;4899398;29;20041;-84
2022/09/26 12:16:45;;;;;;;4.30;1.00;;;;;;;11.58;62.66;99353.25;4899190;29;20040;-81
2022/09/26 12:19:20;;;;;;;2.67;1.10;;;;;;;11.56;62.63;99361.06;4870958;29;20049;-81
2022/09/26 12:22:31;;;;;;;3.00;1.27;;;;;;;11.28;62.58;99352.94;4880520;29;20044;-81
2022/09/26 12:25:25;;;;;;;7.35;1.90;;;;;;;11.21;63.87;99373.03;4878539;29;20060;-82
2022/09/26 12:28:05;;;;;;;3.80;1.40;;;;;;;11.20;63.89;99367.84;4887528;29;20055;-78
2022/09/26 12:31:04;;;;;;;2.90;1.50;;;;;;;11.30;64.36;99378.06;4865407;29;20409;-79
2022/09/26 12:33:46;;;;;;;3.22;1.40;;;;;;;11.35;64.82;99372.78;4882505;29;20045;-80
2022/09/26 12:36:17;;;;;;;;;;;;;;;11.35;64.99;99371.91;4902166;29;20520;-81
2022/09/26 12:39:29;;;;;;;2.65;1.55;;;;;;;11.07;65.13;99330.75;4910206;29;19919;-82